Terminal Aerodrome Forecast
Issued by NWS

Home | Current Version | Previous Version | Text Only | Print | Product List | Glossary On
Versions: 1 2 3 4 5 6 7 8 9 10 11 12 13 14
882
FTUS42 KMLB 251952 AAA
TAFISM
TAF AMD
KISM 251952Z 2520/2618 11008KT P6SM VCTS SCT030CB BKN045 BKN100
     FM260000 10006KT P6SM FEW050 BKN250
     FM261400 05004KT P6SM SCT025=

USA.gov is the U.S. government's official web portal to all federal, state and local government web resources and services.